Terminal Aerodrome Forecast
Issued by NWS Charleston, WV

Home | Current Version | Previous Version | Text Only | Print | Product List | Glossary On
Versions: 1 2 3 4 5 6 7 8 9 10 11 12 13 14 15 16 17 18 19 20 21 22 23
000
FTUS41 KRLX 261722
TAFPKB
TAF
KPKB 261722Z 2618/2718 17005KT P6SM FEW040
     FM262100 17003KT P6SM SKC
     FM271500 20012G18KT P6SM SCT045
     FM271700 20010G16KT P6SM BKN040=

USA.gov is the U.S. government's official web portal to all federal, state and local government web resources and services.